Time;durP1;ratioP1;P1;durP2;ratioP2;P2;SDS_P1;SDS_P2;PMS_P1;PMS_P2;Temp;Humidity;BMP_temperature;BMP_pressure;BME280_temperature;BME280_humidity;BME280_pressure;Samples;Min_cycle;Max_cycle;Signal;HPM_P1;HPM_P2
2024/04/03 00:04:30;;;;;;;3.35;0.70;;;;;;;;;;10307435;28;20085;-74
2024/04/03 00:09:33;;;;;;;0.60;0.32;;;;;;;;;;10319381;28;20277;-74
2024/04/03 00:14:36;;;;;;;1.25;0.60;;;;;;;;;;10292031;28;20145;-74
2024/04/03 00:19:38;;;;;;;1.95;0.40;;;;;;;;;;10300111;28;20169;-74
2024/04/03 00:24:42;;;;;;;1.55;0.55;;;;;;;;;;10315705;28;20145;-74
2024/04/03 00:29:47;;;;;;;1.67;0.70;;;;;;;;;;10297658;28;20043;-74
2024/04/03 00:34:53;;;;;;;3.10;0.60;;;;;;;;;;10316355;28;20050;-74
2024/04/03 00:39:57;;;;;;;0.52;0.38;;;;;;;;;;10314329;28;20465;-74
2024/04/03 00:44:59;;;;;;;1.20;0.50;;;;;;;;;;10315587;28;20151;-74
2024/04/03 00:50:02;;;;;;;1.15;0.40;;;;;;;;;;10296226;28;20082;-74
2024/04/03 00:55:06;;;;;;;0.95;0.40;;;;;;;;;;10294333;28;20663;-74
2024/04/03 01:00:09;;;;;;;2.22;0.68;;;;;;;;;;10294528;28;20575;-74
2024/04/03 01:05:12;;;;;;;1.92;0.70;;;;;;;;;;10314364;28;20626;-74
2024/04/03 01:10:16;;;;;;;1.30;0.40;;;;;;;;;;10308079;28;20169;-74
2024/04/03 01:15:19;;;;;;;1.30;0.40;;;;;;;;;;10276203;28;20126;-74
2024/04/03 01:20:21;;;;;;;2.20;0.70;;;;;;;;;;10297362;28;20134;-74
2024/04/03 01:25:25;;;;;;;2.20;0.60;;;;;;;;;;10309814;28;20533;-74
2024/04/03 01:30:27;;;;;;;1.05;0.40;;;;;;;;;;10313614;28;20515;-74
2024/04/03 01:35:30;;;;;;;0.77;0.40;;;;;;;;;;10310838;28;20112;-74
2024/04/03 01:40:34;;;;;;;1.00;0.43;;;;;;;;;;10305788;28;20046;-74
2024/04/03 01:45:36;;;;;;;1.83;0.57;;;;;;;;;;10312113;28;20070;-73
2024/04/03 01:50:40;;;;;;;1.27;0.55;;;;;;;;;;10308067;28;20045;-74
2024/04/03 01:55:53;;;;;;;2.22;0.75;;;;;;;;;;10314721;28;20042;-74
2024/04/03 02:00:55;;;;;;;2.00;0.60;;;;;;;;;;10292034;28;20051;-73
2024/04/03 02:05:57;;;;;;;1.67;0.60;;;;;;;;;;10303356;28;20141;-74
2024/04/03 02:11:01;;;;;;;2.00;0.70;;;;;;;;;;10291605;28;20089;-73
2024/04/03 02:16:04;;;;;;;0.77;0.70;;;;;;;;;;10304780;28;20046;-74
2024/04/03 02:21:06;;;;;;;1.52;0.60;;;;;;;;;;10320086;28;20397;-73
2024/04/03 02:26:10;;;;;;;1.40;0.70;;;;;;;;;;10313042;28;20047;-74
2024/04/03 02:31:12;;;;;;;1.98;0.70;;;;;;;;;;10307580;28;20058;-74
2024/04/03 02:36:15;;;;;;;1.45;0.50;;;;;;;;;;10287220;28;20049;-73
2024/04/03 02:41:18;;;;;;;1.20;0.70;;;;;;;;;;10309086;28;20551;-74
2024/04/03 02:46:21;;;;;;;0.90;0.57;;;;;;;;;;10311119;28;20214;-74
2024/04/03 02:51:23;;;;;;;1.85;0.68;;;;;;;;;;10298276;28;20045;-74
2024/04/03 02:56:27;;;;;;;0.80;0.50;;;;;;;;;;10312076;28;20732;-74
2024/04/03 03:01:29;;;;;;;2.67;0.85;;;;;;;;;;10301611;28;20042;-74
2024/04/03 03:06:32;;;;;;;1.80;0.77;;;;;;;;;;10307543;28;20062;-74
2024/04/03 03:11:35;;;;;;;0.80;0.57;;;;;;;;;;10295478;28;20055;-74
2024/04/03 03:16:38;;;;;;;0.93;0.65;;;;;;;;;;10293578;28;20042;-74
2024/04/03 03:21:40;;;;;;;3.05;0.98;;;;;;;;;;10293739;28;20496;-74
2024/04/03 03:26:44;;;;;;;2.47;0.80;;;;;;;;;;10330302;28;20063;-74
2024/04/03 03:31:46;;;;;;;2.90;1.00;;;;;;;;;;10299855;28;20483;-74
2024/04/03 03:36:48;;;;;;;1.42;0.80;;;;;;;;;;10313582;28;20523;-74
2024/04/03 03:41:52;;;;;;;2.10;0.65;;;;;;;;;;10315840;28;21217;-74
2024/04/03 03:46:54;;;;;;;3.47;0.80;;;;;;;;;;10316172;28;20405;-74
2024/04/03 03:57:18;;;;;;;2.45;0.90;;;;;;;;;;10311556;28;20047;-74
2024/04/03 04:02:20;;;;;;;3.03;1.05;;;;;;;;;;10315387;28;20057;-74
2024/04/03 04:07:23;;;;;;;5.63;1.45;;;;;;;;;;10309033;28;20048;-74
2024/04/03 04:12:27;;;;;;;3.17;1.10;;;;;;;;;;10311086;28;20535;-74
2024/04/03 04:17:29;;;;;;;2.63;1.00;;;;;;;;;;10308647;28;20055;-74
2024/04/03 04:22:31;;;;;;;2.15;0.68;;;;;;;;;;10312783;28;20577;-74
2024/04/03 04:27:35;;;;;;;1.90;0.90;;;;;;;;;;10317407;28;20039;-74
2024/04/03 04:32:37;;;;;;;3.55;0.90;;;;;;;;;;10309624;28;20042;-74
2024/04/03 04:37:39;;;;;;;2.10;0.80;;;;;;;;;;10295054;28;20054;-74
2024/04/03 04:42:44;;;;;;;1.15;0.60;;;;;;;;;;10297917;28;20054;-74
2024/04/03 04:47:47;;;;;;;1.90;1.00;;;;;;;;;;10310653;28;20077;-74
2024/04/03 04:52:49;;;;;;;1.13;0.70;;;;;;;;;;10286586;28;20046;-74
2024/04/03 04:57:53;;;;;;;2.08;1.00;;;;;;;;;;10309949;28;20050;-74
2024/04/03 05:02:55;;;;;;;1.65;0.82;;;;;;;;;;10293011;28;20042;-74
2024/04/03 05:07:57;;;;;;;3.10;0.73;;;;;;;;;;10275911;28;20046;-74
2024/04/03 05:13:01;;;;;;;1.80;0.75;;;;;;;;;;10287411;28;20046;-74
2024/04/03 05:23:38;;;;;;;1.35;0.57;;;;;;;;;;10302203;28;20050;-73
2024/04/03 05:28:44;;;;;;;1.42;0.63;;;;;;;;;;10288588;28;20051;-73
2024/04/03 05:33:53;;;;;;;1.50;1.00;;;;;;;;;;10270763;28;20528;-73
2024/04/03 05:38:56;;;;;;;1.75;0.98;;;;;;;;;;10275321;28;20053;-73
2024/04/03 05:44:04;;;;;;;2.13;0.63;;;;;;;;;;10289044;28;20054;-73
2024/04/03 05:49:11;;;;;;;;;;;;;;;;;;10280984;28;20046;-73
2024/04/03 05:54:14;;;;;;;2.65;0.88;;;;;;;;;;10286697;28;19980;-73
2024/04/03 05:59:23;;;;;;;1.45;0.75;;;;;;;;;;10287898;28;20053;-74
2024/04/03 06:04:51;;;;;;;1.98;0.77;;;;;;;;;;10272753;28;20046;-74
2024/04/03 06:15:49;;;;;;;0.73;0.45;;;;;;;;;;10183331;28;20058;-74
2024/04/03 06:20:51;;;;;;;1.60;0.77;;;;;;;;;;10286589;28;20444;-74
2024/04/03 06:25:53;;;;;;;0.82;0.60;;;;;;;;;;10290586;28;20076;-74
2024/04/03 06:30:57;;;;;;;1.05;0.40;;;;;;;;;;10290652;28;20397;-74
2024/04/03 06:35:59;;;;;;;2.42;0.60;;;;;;;;;;10288527;28;20068;-74
2024/04/03 06:41:02;;;;;;;3.80;0.90;;;;;;;;;;10289671;28;20049;-74
2024/04/03 06:46:06;;;;;;;1.92;0.70;;;;;;;;;;10289721;28;20043;-74
2024/04/03 06:51:08;;;;;;;1.42;0.75;;;;;;;;;;10304110;28;20050;-73
2024/04/03 06:56:11;;;;;;;1.67;0.80;;;;;;;;;;10309932;28;20072;-74
2024/04/03 07:01:17;;;;;;;2.50;0.93;;;;;;;;;;10299647;28;20072;-74
2024/04/03 07:06:21;;;;;;;1.67;0.65;;;;;;;;;;10289435;28;20046;-74
2024/04/03 07:11:23;;;;;;;3.85;0.90;;;;;;;;;;10294251;28;20058;-74
2024/04/03 07:16:27;;;;;;;1.08;0.55;;;;;;;;;;10288219;28;20046;-74
2024/04/03 07:21:30;;;;;;;4.18;1.00;;;;;;;;;;10287201;28;20050;-74
2024/04/03 07:26:32;;;;;;;2.05;1.05;;;;;;;;;;10303900;28;20055;-73
2024/04/03 07:31:36;;;;;;;3.30;0.88;;;;;;;;;;10307471;28;20086;-73
2024/04/03 07:36:39;;;;;;;4.05;1.27;;;;;;;;;;10294162;28;20069;-73
2024/04/03 07:47:48;;;;;;;3.55;0.90;;;;;;;;;;10349329;28;20077;-73
2024/04/03 08:16:44;;;;;;;1.02;0.52;;;;;;;;;;9801628;22;20053;-73
2024/04/03 08:43:52;;;;;;;0.60;0.60;;;;;;;;;;11113957;23;20077;-82
2024/04/03 08:48:57;;;;;;;5.47;0.80;;;;;;;;;;10319464;28;20061;-81
2024/04/03 08:54:06;;;;;;;1.88;0.75;;;;;;;;;;10319693;28;20061;-81
2024/04/03 08:59:12;;;;;;;3.38;1.02;;;;;;;;;;10318612;28;20095;-82
2024/04/03 09:04:16;;;;;;;1.95;1.00;;;;;;;;;;10299333;28;20534;-81
2024/04/03 09:09:19;;;;;;;2.33;0.52;;;;;;;;;;10290617;28;20129;-81
2024/04/03 09:14:24;;;;;;;1.65;0.73;;;;;;;;;;10320860;28;20692;-81
2024/04/03 09:19:27;;;;;;;2.00;0.95;;;;;;;;;;10324514;28;20049;-81
2024/04/03 09:24:36;;;;;;;2.92;0.80;;;;;;;;;;10329983;28;20103;-81
2024/04/03 09:29:40;;;;;;;1.85;0.88;;;;;;;;;;10337197;28;20064;-82
2024/04/03 09:34:43;;;;;;;2.05;0.80;;;;;;;;;;10299995;28;20042;-81
2024/04/03 09:39:45;;;;;;;1.08;0.80;;;;;;;;;;10303954;28;20042;-81
2024/04/03 09:44:57;;;;;;;1.33;0.80;;;;;;;;;;10309053;28;20655;-81
2024/04/03 09:50:01;;;;;;;1.45;0.82;;;;;;;;;;10300810;28;20046;-81
2024/04/03 09:55:05;;;;;;;1.98;0.65;;;;;;;;;;10297816;28;20046;-81
2024/04/03 10:00:13;;;;;;;1.23;0.73;;;;;;;;;;10310443;28;20696;-82
2024/04/03 10:05:17;;;;;;;0.73;0.52;;;;;;;;;;10322312;28;20052;-82
2024/04/03 10:10:20;;;;;;;1.92;0.68;;;;;;;;;;10329502;28;20038;-82
2024/04/03 10:15:27;;;;;;;0.82;0.68;;;;;;;;;;10310983;28;20128;-82
2024/04/03 10:20:47;;;;;;;1.70;0.88;;;;;;;;;;10308034;28;20050;-81
2024/04/03 10:25:51;;;;;;;1.58;0.95;;;;;;;;;;10331008;28;20101;-81
2024/04/03 10:30:57;;;;;;;1.43;0.80;;;;;;;;;;10330421;28;20093;-81
2024/04/03 10:36:01;;;;;;;1.60;0.80;;;;;;;;;;10309038;28;20046;-86
2024/04/03 10:41:05;;;;;;;3.13;1.10;;;;;;;;;;10317585;28;20046;-85
2024/04/03 10:46:12;;;;;;;1.23;0.88;;;;;;;;;;10315366;28;20132;-84
2024/04/03 10:51:14;;;;;;;0.98;0.60;;;;;;;;;;10305441;28;20116;-84
2024/04/03 10:56:18;;;;;;;0.85;0.40;;;;;;;;;;10291324;28;20042;-84
2024/04/03 11:01:21;;;;;;;0.30;0.30;;;;;;;;;;10326249;28;20132;-85
2024/04/03 11:06:24;;;;;;;0.52;0.40;;;;;;;;;;10314314;28;20109;-81
2024/04/03 11:11:30;;;;;;;0.80;0.40;;;;;;;;;;10298118;28;20056;-81
2024/04/03 11:16:33;;;;;;;0.47;0.43;;;;;;;;;;10293489;28;20046;-81
2024/04/03 11:46:10;;;;;;;1.15;0.47;;;;;;;;;;10399569;23;20776;-84
2024/04/03 11:51:13;;;;;;;1.10;0.30;;;;;;;;;;10299963;28;20721;-82
2024/04/03 11:56:15;;;;;;;1.00;0.60;;;;;;;;;;10301934;28;20057;-81
2024/04/03 12:01:19;;;;;;;0.93;0.40;;;;;;;;;;10290339;28;20109;-79
2024/04/03 12:06:22;;;;;;;0.50;0.40;;;;;;;;;;10287340;28;20057;-79
2024/04/03 12:11:24;;;;;;;0.20;0.20;;;;;;;;;;10287984;28;20337;-79
2024/04/03 12:16:33;;;;;;;0.57;0.52;;;;;;;;;;10282589;28;20057;-80
2024/04/03 12:21:38;;;;;;;0.40;0.40;;;;;;;;;;10269861;28;20054;-80
2024/04/03 12:26:41;;;;;;;0.40;0.40;;;;;;;;;;10287092;28;20050;-79
2024/04/03 12:31:46;;;;;;;0.40;0.30;;;;;;;;;;10289394;28;20050;-79
2024/04/03 12:36:49;;;;;;;0.30;0.30;;;;;;;;;;10275980;28;20563;-79
2024/04/03 12:41:52;;;;;;;0.20;0.20;;;;;;;;;;10297417;28;20054;-79
2024/04/03 12:46:56;;;;;;;0.20;0.15;;;;;;;;;;10317761;28;20046;-79
2024/04/03 12:51:59;;;;;;;0.30;0.30;;;;;;;;;;10268083;28;20042;-79
2024/04/03 12:57:01;;;;;;;0.52;0.30;;;;;;;;;;10293460;28;20046;-79
2024/04/03 13:02:07;;;;;;;0.20;0.20;;;;;;;;;;10269310;28;20820;-79
2024/04/03 13:07:13;;;;;;;0.30;0.30;;;;;;;;;;10280233;28;20154;-79
2024/04/03 13:12:19;;;;;;;0.15;0.10;;;;;;;;;;10261584;28;20129;-82
2024/04/03 13:17:24;;;;;;;0.30;0.17;;;;;;;;;;10291566;28;20050;-82
2024/04/03 13:22:31;;;;;;;0.95;0.35;;;;;;;;;;10295067;28;20442;-82
2024/04/03 13:27:33;;;;;;;0.20;0.20;;;;;;;;;;10273855;28;20051;-83
2024/04/03 13:32:37;;;;;;;0.40;0.38;;;;;;;;;;10300442;28;20043;-82
2024/04/03 13:37:43;;;;;;;0.20;0.20;;;;;;;;;;10257767;28;20058;-83
2024/04/03 13:42:47;;;;;;;0.22;0.20;;;;;;;;;;10300583;28;20067;-85
2024/04/03 13:47:51;;;;;;;0.17;0.17;;;;;;;;;;10282402;28;20551;-84
2024/04/03 13:52:53;;;;;;;0.40;0.38;;;;;;;;;;10281334;28;20046;-86
2024/04/03 13:57:57;;;;;;;0.30;0.28;;;;;;;;;;10282792;28;20090;-85
2024/04/03 14:03:01;;;;;;;0.73;0.40;;;;;;;;;;10291474;28;20038;-86
2024/04/03 14:08:04;;;;;;;0.25;0.22;;;;;;;;;;10270831;28;20452;-85
2024/04/03 14:13:07;;;;;;;0.57;0.40;;;;;;;;;;10299281;28;20098;-86
2024/04/03 14:18:23;;;;;;;0.73;0.40;;;;;;;;;;10274126;28;20495;-84
2024/04/03 14:23:26;;;;;;;0.20;0.20;;;;;;;;;;10302435;28;20507;-86
2024/04/03 14:28:28;;;;;;;0.40;0.40;;;;;;;;;;10306498;28;20053;-86
2024/04/03 14:33:32;;;;;;;0.55;0.30;;;;;;;;;;10264751;28;20749;-88
2024/04/03 14:38:35;;;;;;;0.38;0.38;;;;;;;;;;10273180;28;20416;-84
2024/04/03 14:43:37;;;;;;;0.40;0.40;;;;;;;;;;10278461;28;20186;-83
2024/04/03 14:48:45;;;;;;;0.47;0.30;;;;;;;;;;10263658;28;20074;-84
2024/04/03 14:53:47;;;;;;;0.47;0.47;;;;;;;;;;10274968;28;20038;-84
2024/04/03 14:58:50;;;;;;;0.60;0.52;;;;;;;;;;10264383;28;20058;-84
2024/04/03 15:03:54;;;;;;;0.30;0.30;;;;;;;;;;10257220;28;20070;-84
2024/04/03 15:08:56;;;;;;;0.38;0.38;;;;;;;;;;10275071;28;20462;-83
2024/04/03 15:13:59;;;;;;;0.20;0.20;;;;;;;;;;10275155;28;20097;-84
2024/04/03 15:19:03;;;;;;;0.68;0.20;;;;;;;;;;10277524;28;20046;-84
2024/04/03 15:24:06;;;;;;;0.30;0.30;;;;;;;;;;10294272;28;20074;-86
2024/04/03 15:29:09;;;;;;;0.25;0.20;;;;;;;;;;10280625;28;20057;-83
2024/04/03 15:34:13;;;;;;;0.38;0.25;;;;;;;;;;10279893;28;20626;-86
2024/04/03 15:53:02;;;;;;;0.10;0.10;;;;;;;;;;10162405;29;20510;-85
2024/04/03 15:58:06;;;;;;;0.50;0.30;;;;;;;;;;10175805;29;20131;-85
2024/04/03 16:03:09;;;;;;;1.30;0.35;;;;;;;;;;10176661;29;20139;-84
2024/04/03 16:08:13;;;;;;;0.40;0.40;;;;;;;;;;10190711;29;20086;-82
2024/04/03 16:13:15;;;;;;;0.60;0.50;;;;;;;;;;10168711;29;20047;-80
2024/04/03 16:18:18;;;;;;;0.20;0.20;;;;;;;;;;10171016;29;20047;-81
2024/04/03 16:23:22;;;;;;;0.52;0.25;;;;;;;;;;10260955;28;20109;-80
2024/04/03 16:28:24;;;;;;;0.28;0.20;;;;;;;;;;10284510;28;20459;-80
2024/04/03 16:33:27;;;;;;;0.15;0.10;;;;;;;;;;10262799;28;20048;-80
2024/04/03 16:38:31;;;;;;;0.35;0.30;;;;;;;;;;10266004;28;20534;-82
2024/04/03 16:43:34;;;;;;;0.55;0.43;;;;;;;;;;10280256;28;20050;-81
2024/04/03 16:48:36;;;;;;;0.90;0.65;;;;;;;;;;10291520;28;20065;-80
2024/04/03 16:53:41;;;;;;;1.50;0.90;;;;;;;;;;10281176;28;20054;-81
2024/04/03 16:58:43;;;;;;;1.35;0.75;;;;;;;;;;10295628;28;20079;-80
2024/04/03 17:03:46;;;;;;;1.13;0.70;;;;;;;;;;10261253;28;20129;-80
2024/04/03 17:08:50;;;;;;;2.78;0.80;;;;;;;;;;10296311;28;20389;-80
2024/04/03 17:13:53;;;;;;;1.15;0.82;;;;;;;;;;10277602;28;20050;-81
2024/04/03 17:18:55;;;;;;;0.73;0.50;;;;;;;;;;10289523;28;20677;-81
2024/04/03 17:23:59;;;;;;;0.40;0.40;;;;;;;;;;10307225;28;20061;-80
2024/04/03 17:29:02;;;;;;;0.30;0.30;;;;;;;;;;10285296;28;20093;-80
2024/04/03 17:34:05;;;;;;;0.20;0.20;;;;;;;;;;10265680;28;20066;-84
2024/04/03 17:39:11;;;;;;;0.30;0.30;;;;;;;;;;10264663;28;20050;-83
2024/04/03 17:44:14;;;;;;;0.22;0.15;;;;;;;;;;10278402;28;20046;-83
2024/04/03 17:49:16;;;;;;;0.47;0.38;;;;;;;;;;10290733;28;20449;-82
2024/04/03 17:54:20;;;;;;;0.30;0.30;;;;;;;;;;10271933;28;20096;-82
2024/04/03 17:59:23;;;;;;;0.82;0.60;;;;;;;;;;10271404;28;20050;-83
2024/04/03 18:04:26;;;;;;;0.40;0.40;;;;;;;;;;10286847;28;20730;-81
2024/04/03 18:09:31;;;;;;;0.32;0.30;;;;;;;;;;10297864;28;20174;-82
2024/04/03 18:14:33;;;;;;;0.32;0.30;;;;;;;;;;10290204;28;20054;-83
2024/04/03 18:19:36;;;;;;;0.30;0.30;;;;;;;;;;10276735;28;20313;-82
2024/04/03 18:24:40;;;;;;;1.13;0.52;;;;;;;;;;10265407;28;20871;-83
2024/04/03 18:29:43;;;;;;;1.23;0.60;;;;;;;;;;10247828;28;20141;-84
2024/04/03 18:34:48;;;;;;;0.68;0.68;;;;;;;;;;10277361;28;20051;-83
2024/04/03 18:39:52;;;;;;;2.60;0.57;;;;;;;;;;10282817;28;20042;-81
2024/04/03 18:44:55;;;;;;;0.80;0.60;;;;;;;;;;10260095;28;20053;-81
2024/04/03 18:49:57;;;;;;;1.35;0.63;;;;;;;;;;10266038;28;20069;-82
2024/04/03 18:55:02;;;;;;;2.03;0.73;;;;;;;;;;10271215;28;20145;-84
2024/04/03 19:00:10;;;;;;;0.65;0.45;;;;;;;;;;10293254;28;20051;-80
2024/04/03 19:05:17;;;;;;;1.40;0.55;;;;;;;;;;10281528;28;20042;-80
2024/04/03 19:10:21;;;;;;;0.70;0.50;;;;;;;;;;10261264;28;20397;-80
2024/04/03 19:15:24;;;;;;;0.98;0.47;;;;;;;;;;10256707;28;20357;-80
2024/04/03 19:20:27;;;;;;;0.90;0.55;;;;;;;;;;10280923;28;20177;-80
2024/04/03 19:25:31;;;;;;;1.75;0.75;;;;;;;;;;10262868;28;20049;-80
2024/04/03 19:30:34;;;;;;;1.80;0.80;;;;;;;;;;10288771;28;20058;-80
2024/04/03 19:35:36;;;;;;;1.35;0.73;;;;;;;;;;10278705;28;20129;-80
2024/04/03 19:40:43;;;;;;;1.65;0.70;;;;;;;;;;10268672;28;20053;-80
2024/04/03 19:45:47;;;;;;;1.10;0.52;;;;;;;;;;10278326;28;20051;-80
2024/04/03 19:50:49;;;;;;;0.73;0.35;;;;;;;;;;10288610;28;20579;-80
2024/04/03 19:55:55;;;;;;;1.00;0.60;;;;;;;;;;10265709;28;20072;-79
2024/04/03 20:01:07;;;;;;;1.03;0.40;;;;;;;;;;10261475;28;20046;-80
2024/04/03 20:06:13;;;;;;;1.03;0.50;;;;;;;;;;10318998;28;20066;-80
2024/04/03 20:11:17;;;;;;;1.23;0.60;;;;;;;;;;10283978;28;20072;-80
2024/04/03 20:16:23;;;;;;;4.38;1.63;;;;;;;;;;10311400;28;20046;-79
2024/04/03 20:21:27;;;;;;;2.47;1.10;;;;;;;;;;10293346;28;20042;-79
2024/04/03 20:26:32;;;;;;;1.60;1.10;;;;;;;;;;10264937;28;20060;-80
2024/04/03 20:31:34;;;;;;;3.50;2.08;;;;;;;;;;10297228;28;20439;-80
2024/04/03 20:37:04;;;;;;;2.88;1.50;;;;;;;;;;10265985;28;20591;-80
2024/04/03 20:42:11;;;;;;;2.92;1.55;;;;;;;;;;10302860;28;20038;-81
2024/04/03 20:47:16;;;;;;;2.28;1.77;;;;;;;;;;10286264;28;20542;-81
2024/04/03 20:52:30;;;;;;;3.38;1.88;;;;;;;;;;10282397;28;20046;-80
2024/04/03 20:57:45;;;;;;;2.42;1.30;;;;;;;;;;10285622;28;20043;-81
2024/04/03 21:02:52;;;;;;;2.72;0.93;;;;;;;;;;10291344;28;20042;-81
2024/04/03 21:07:55;;;;;;;2.05;0.90;;;;;;;;;;10296794;28;20142;-81
2024/04/03 21:12:59;;;;;;;0.75;0.55;;;;;;;;;;10269078;28;20049;-81
2024/04/03 21:18:03;;;;;;;0.68;0.40;;;;;;;;;;10280437;28;20262;-81
2024/04/03 21:23:09;;;;;;;0.68;0.60;;;;;;;;;;10278006;28;20043;-81
2024/04/03 21:28:17;;;;;;;0.73;0.60;;;;;;;;;;10275895;28;20081;-81
2024/04/03 21:33:20;;;;;;;0.40;0.35;;;;;;;;;;10285100;28;20047;-81
2024/04/03 21:38:25;;;;;;;0.73;0.40;;;;;;;;;;10273563;28;20047;-81
2024/04/03 21:43:29;;;;;;;1.00;0.60;;;;;;;;;;10268002;28;20208;-81
2024/04/03 21:48:32;;;;;;;0.70;0.40;;;;;;;;;;10279611;28;20061;-81
2024/04/03 21:53:34;;;;;;;0.70;0.50;;;;;;;;;;10275716;28;20053;-82
2024/04/03 21:58:38;;;;;;;1.17;0.50;;;;;;;;;;10269302;28;20047;-81
2024/04/03 22:03:40;;;;;;;1.60;1.20;;;;;;;;;;10283727;28;20058;-81
2024/04/03 22:08:43;;;;;;;0.80;0.77;;;;;;;;;;10275118;28;20113;-81
2024/04/03 22:13:47;;;;;;;0.65;0.60;;;;;;;;;;10267133;28;20061;-81
2024/04/03 22:18:49;;;;;;;0.60;0.57;;;;;;;;;;10274610;28;20101;-81
2024/04/03 22:23:52;;;;;;;0.85;0.60;;;;;;;;;;10281209;28;20047;-81
2024/04/03 22:28:56;;;;;;;0.57;0.45;;;;;;;;;;10264556;28;20185;-80
2024/04/03 22:33:58;;;;;;;0.75;0.30;;;;;;;;;;10270833;28;20045;-81
2024/04/03 22:39:01;;;;;;;0.45;0.30;;;;;;;;;;10258694;28;20125;-81
2024/04/03 22:44:05;;;;;;;0.65;0.35;;;;;;;;;;10284685;28;20061;-81
2024/04/03 22:49:08;;;;;;;0.85;0.40;;;;;;;;;;10279911;28;20050;-81
2024/04/03 22:54:10;;;;;;;1.02;0.50;;;;;;;;;;10254195;28;20047;-81
2024/04/03 22:59:17;;;;;;;0.95;0.40;;;;;;;;;;10283870;28;20865;-81
2024/04/03 23:04:20;;;;;;;0.52;0.43;;;;;;;;;;10249377;28;20051;-81
2024/04/03 23:09:22;;;;;;;1.17;0.60;;;;;;;;;;10285975;28;20843;-81
2024/04/03 23:14:26;;;;;;;0.63;0.40;;;;;;;;;;10281691;28;20440;-80
2024/04/03 23:19:29;;;;;;;0.82;0.82;;;;;;;;;;10277722;28;20038;-80
2024/04/03 23:24:31;;;;;;;1.98;1.05;;;;;;;;;;10287679;28;20122;-81
2024/04/03 23:29:35;;;;;;;1.40;0.70;;;;;;;;;;10284497;28;20053;-81
2024/04/03 23:34:38;;;;;;;1.23;0.70;;;;;;;;;;10272597;28;20074;-81
2024/04/03 23:39:41;;;;;;;0.93;0.60;;;;;;;;;;10273201;28;20257;-81
2024/04/03 23:44:45;;;;;;;1.75;0.73;;;;;;;;;;10280489;28;20054;-80
2024/04/03 23:49:47;;;;;;;2.40;0.73;;;;;;;;;;10283101;28;20061;-80
2024/04/03 23:54:50;;;;;;;1.63;0.90;;;;;;;;;;10264838;28;20138;-80
2024/04/03 23:59:54;;;;;;;1.20;1.00;;;;;;;;;;10279491;28;20158;-80
